Time;durP1;ratioP1;P1;durP2;ratioP2;P2;SDS_P1;SDS_P2;PMS_P1;PMS_P2;Temp;Humidity;BMP_temperature;BMP_pressure;BME280_temperature;BME280_humidity;BME280_pressure;Samples;Min_cycle;Max_cycle;Signal;HPM_P1;HPM_P2
2022/10/25 00:01:38;;;;;;;1.60;0.90;;;;;;;12.77;100.00;96562.75;5057736;28;20206;-79
2022/10/25 00:04:05;;;;;;;3.00;1.20;;;;;;;12.74;100.00;96588.47;5043866;28;20211;-79
2022/10/25 00:06:34;;;;;;;1.03;0.93;;;;;;;12.67;100.00;96581.53;5045608;28;20195;-79
2022/10/25 00:09:01;;;;;;;2.37;0.97;;;;;;;12.68;100.00;96594.00;5040806;28;20290;-79
2022/10/25 00:11:29;;;;;;;1.03;0.80;;;;;;;12.66;100.00;96610.50;5035751;28;20223;-79
2022/10/25 00:13:59;;;;;;;6.27;1.10;;;;;;;12.74;100.00;96603.91;5035862;28;20253;-78
2022/10/25 00:16:28;;;;;;;2.63;1.20;;;;;;;12.66;100.00;96612.41;5053366;28;20219;-79
2022/10/25 00:18:55;;;;;;;1.80;1.10;;;;;;;12.68;100.00;96613.78;5050576;28;20209;-79
2022/10/25 00:21:23;;;;;;;4.90;1.20;;;;;;;12.67;100.00;96606.75;5034240;28;20207;-78
2022/10/25 00:23:52;;;;;;;5.27;1.20;;;;;;;12.68;100.00;96612.97;5058166;28;20222;-78
2022/10/25 00:26:20;;;;;;;2.00;1.03;;;;;;;12.58;100.00;96608.16;5041069;28;20264;-78
2022/10/25 00:28:47;;;;;;;1.60;1.13;;;;;;;12.59;100.00;96609.78;5042794;28;20213;-78
2022/10/25 00:31:16;;;;;;;2.40;1.30;;;;;;;12.71;100.00;96613.31;5035687;28;20214;-79
2022/10/25 00:33:44;;;;;;;2.37;1.10;;;;;;;12.75;100.00;96619.94;5040386;28;20206;-79
2022/10/25 00:36:13;;;;;;;1.93;1.30;;;;;;;12.76;100.00;96596.38;5043615;28;20230;-79
2022/10/25 00:38:41;;;;;;;1.73;1.13;;;;;;;12.83;100.00;96610.59;5036975;28;20212;-79
2022/10/25 00:41:11;;;;;;;1.80;1.20;;;;;;;12.86;100.00;96610.13;5051431;28;20260;-79
2022/10/25 00:43:40;;;;;;;2.60;1.00;;;;;;;12.86;100.00;96618.25;5039545;28;20268;-79
2022/10/25 00:46:13;;;;;;;1.90;1.23;;;;;;;12.87;100.00;96607.16;5059348;28;20197;-78
2022/10/25 00:48:44;;;;;;;2.80;1.23;;;;;;;12.91;100.00;96607.53;5033320;28;20210;-79
2022/10/25 00:51:11;;;;;;;3.43;1.20;;;;;;;12.88;100.00;96600.69;5046810;28;20215;-79
2022/10/25 00:53:38;;;;;;;1.30;1.00;;;;;;;12.79;100.00;96596.69;5046821;28;20209;-79
2022/10/25 00:56:12;;;;;;;3.27;1.10;;;;;;;12.88;100.00;96608.81;5042958;28;20226;-79
2022/10/25 00:58:43;;;;;;;1.57;1.10;;;;;;;12.87;100.00;96612.59;5040649;28;20272;-78
2022/10/25 01:01:10;;;;;;;1.57;1.03;;;;;;;12.83;100.00;96616.84;5042182;28;20219;-78
2022/10/25 01:03:41;;;;;;;1.37;1.10;;;;;;;12.74;100.00;96612.03;5056520;28;20203;-79
2022/10/25 01:06:17;;;;;;;1.30;1.10;;;;;;;12.71;100.00;96618.75;5038879;28;20203;-78
2022/10/25 01:08:47;;;;;;;1.23;1.00;;;;;;;12.67;100.00;96622.19;5047381;28;20301;-78
2022/10/25 01:11:15;;;;;;;3.83;1.20;;;;;;;12.58;100.00;96618.16;5041727;28;20214;-78
2022/10/25 01:13:42;;;;;;;3.53;1.20;;;;;;;12.57;100.00;96614.63;5035324;28;20310;-79
2022/10/25 01:16:18;;;;;;;3.30;1.73;;;;;;;12.56;100.00;96618.41;5038950;28;20230;-79
2022/10/25 01:18:52;;;;;;;3.03;1.10;;;;;;;12.55;100.00;96619.47;5040294;28;20229;-78
2022/10/25 01:21:51;;;;;;;4.70;1.10;;;;;;;12.58;100.00;96618.16;5038340;28;20214;-79
2022/10/25 01:24:37;;;;;;;1.80;1.10;;;;;;;12.62;100.00;96613.91;5046607;28;20225;-79
2022/10/25 01:27:20;;;;;;;1.40;1.17;;;;;;;12.61;100.00;96610.38;5055399;28;20220;-79
2022/10/25 01:30:03;;;;;;;1.23;1.03;;;;;;;12.56;100.00;96615.69;5044086;28;20258;-79
2022/10/25 01:32:43;;;;;;;1.20;1.00;;;;;;;12.57;100.00;96611.94;5042449;28;20256;-78
2022/10/25 01:35:19;;;;;;;3.23;1.07;;;;;;;12.60;100.00;96599.78;5032568;28;20286;-79
2022/10/25 01:38:00;;;;;;;3.83;0.90;;;;;;;12.51;100.00;96604.72;5038775;28;20217;-78
2022/10/25 01:40:33;;;;;;;1.07;1.00;;;;;;;12.42;100.00;96606.97;5034041;28;20260;-78
2022/10/25 01:43:06;;;;;;;2.77;1.00;;;;;;;12.45;100.00;96605.69;5046544;28;20221;-79
2022/10/25 01:45:41;;;;;;;0.90;0.90;;;;;;;12.52;100.00;96598.25;5053668;28;20199;-79
2022/10/25 01:48:15;;;;;;;1.77;1.10;;;;;;;12.52;100.00;96606.38;5045262;28;20201;-79
2022/10/25 01:50:45;;;;;;;4.63;1.10;;;;;;;12.51;100.00;96604.72;5035342;28;20203;-78
2022/10/25 01:53:13;;;;;;;2.20;1.10;;;;;;;12.49;100.00;96599.56;5030407;28;20206;-78
2022/10/25 01:55:49;;;;;;;1.10;0.97;;;;;;;12.55;100.00;96596.97;5031739;28;20226;-78
2022/10/25 01:58:30;;;;;;;1.73;1.00;;;;;;;12.53;100.00;96608.03;5036668;28;20201;-79
2022/10/25 02:01:10;;;;;;;1.10;1.00;;;;;;;12.54;100.00;96612.38;5031684;28;20214;-79
2022/10/25 02:03:45;;;;;;;3.57;1.53;;;;;;;12.60;100.00;96605.19;5031608;28;20205;-79
2022/10/25 02:06:25;;;;;;;2.50;0.90;;;;;;;12.49;100.00;96580.59;5035397;28;20199;-78
2022/10/25 02:08:59;;;;;;;1.70;0.80;;;;;;;12.39;100.00;96587.69;5038269;28;20209;-78
2022/10/25 02:11:28;;;;;;;0.90;0.90;;;;;;;12.31;100.00;96596.16;5051058;28;20322;-78
2022/10/25 02:14:07;;;;;;;1.80;0.93;;;;;;;12.42;100.00;96614.25;5038962;28;21090;-78
2022/10/25 02:16:40;;;;;;;5.90;1.30;;;;;;;12.47;100.00;96596.25;5047703;28;20222;-78
2022/10/25 02:19:12;;;;;;;1.30;1.07;;;;;;;12.50;100.00;96592.28;5037037;28;20222;-78
2022/10/25 02:21:40;;;;;;;1.63;1.00;;;;;;;12.43;100.00;96596.97;5045354;28;20289;-78
2022/10/25 02:24:11;;;;;;;3.80;1.10;;;;;;;12.41;100.00;96607.22;5057682;28;20202;-78
2022/10/25 02:26:41;;;;;;;4.63;1.00;;;;;;;12.48;100.00;96608.75;5057507;28;20213;-78
2022/10/25 02:29:08;;;;;;;2.50;1.07;;;;;;;12.50;100.00;96613.94;5035851;28;20202;-78
2022/10/25 02:31:37;;;;;;;2.93;1.10;;;;;;;12.48;100.00;96597.91;5041646;28;20279;-79
2022/10/25 02:34:05;;;;;;;3.23;1.10;;;;;;;12.47;100.00;96595.44;5041112;28;20211;-78
2022/10/25 02:36:33;;;;;;;1.30;0.93;;;;;;;12.50;100.00;96592.28;5036337;28;20246;-79
2022/10/25 02:39:02;;;;;;;1.93;0.90;;;;;;;12.48;100.00;96591.69;5052607;28;20221;-78
2022/10/25 02:41:29;;;;;;;2.17;1.07;;;;;;;12.47;100.00;96603.56;5035472;28;20199;-78
2022/10/25 02:43:56;;;;;;;1.80;1.10;;;;;;;12.46;100.00;96607.34;5035089;28;20213;-78
2022/10/25 02:46:24;;;;;;;1.50;0.90;;;;;;;12.43;100.00;96605.09;5032899;28;20201;-78
2022/10/25 02:48:51;;;;;;;3.17;0.93;;;;;;;12.42;100.00;96603.44;5044811;28;20240;-78
2022/10/25 02:51:19;;;;;;;2.10;1.60;;;;;;;12.38;100.00;96607.69;5034646;28;20187;-79
2022/10/25 02:53:47;;;;;;;1.43;0.90;;;;;;;12.37;100.00;96606.84;5053226;28;20248;-79
2022/10/25 02:56:16;;;;;;;3.60;1.00;;;;;;;12.40;100.00;96611.00;5037677;28;20222;-79
2022/10/25 02:58:45;;;;;;;3.47;1.00;;;;;;;12.44;100.00;96602.16;5057545;28;20199;-79
2022/10/25 03:01:14;;;;;;;1.50;0.90;;;;;;;12.47;100.00;96603.56;5044924;28;20198;-78
2022/10/25 03:03:41;;;;;;;2.57;0.80;;;;;;;12.44;100.00;96596.72;5049268;28;20265;-79
2022/10/25 03:06:09;;;;;;;1.30;1.10;;;;;;;12.43;100.00;96605.91;5042137;28;20198;-79
2022/10/25 03:08:37;;;;;;;1.00;0.90;;;;;;;12.42;100.00;96614.25;5054228;28;20213;-79
2022/10/25 03:11:08;;;;;;;3.63;1.03;;;;;;;12.42;100.00;96609.66;5038446;28;20233;-78
2022/10/25 03:13:36;;;;;;;1.47;1.03;;;;;;;12.39;100.00;96606.63;5032222;28;20234;-78
2022/10/25 03:16:03;;;;;;;1.17;0.90;;;;;;;12.32;100.00;96605.94;5029349;28;20302;-78
2022/10/25 03:18:31;;;;;;;1.37;1.07;;;;;;;12.26;100.00;96604.97;5038051;28;20206;-78
2022/10/25 03:20:58;;;;;;;3.93;1.10;;;;;;;12.23;100.00;96585.66;5034542;28;20233;-79
2022/10/25 03:23:26;;;;;;;3.77;1.10;;;;;;;12.21;100.00;96595.91;5048347;28;20218;-79
2022/10/25 03:25:54;;;;;;;2.73;1.10;;;;;;;12.22;100.00;96597.56;5040766;28;20472;-79
2022/10/25 03:28:22;;;;;;;3.20;1.17;;;;;;;12.20;100.00;96605.91;5030140;28;20293;-78
2022/10/25 03:30:49;;;;;;;2.80;1.07;;;;;;;12.17;100.00;96603.66;5040871;28;20195;-78
2022/10/25 03:33:17;;;;;;;1.53;0.90;;;;;;;12.07;100.00;96584.47;5066109;28;20267;-78
2022/10/25 03:35:44;;;;;;;2.20;1.10;;;;;;;12.08;100.00;96596.94;5046737;28;20202;-79
2022/10/25 03:38:11;;;;;;;1.27;1.17;;;;;;;12.04;100.00;96596.59;5033950;28;20210;-79
2022/10/25 03:40:38;;;;;;;3.07;1.37;;;;;;;12.00;100.00;96606.22;5044777;28;20201;-78
2022/10/25 03:43:05;;;;;;;2.60;1.00;;;;;;;11.95;100.00;96589.88;5045839;28;20214;-78
2022/10/25 03:45:33;;;;;;;1.73;1.00;;;;;;;12.05;100.00;96602.84;5045090;28;20190;-78
2022/10/25 03:48:00;;;;;;;1.73;1.10;;;;;;;12.04;100.00;96602.00;5039012;28;20298;-79
2022/10/25 03:50:27;;;;;;;2.03;1.20;;;;;;;12.08;100.00;96603.16;5038419;28;20222;-78
2022/10/25 03:52:54;;;;;;;3.33;1.20;;;;;;;12.02;100.00;96604.13;5040317;28;20199;-78
2022/10/25 03:55:21;;;;;;;4.23;1.33;;;;;;;11.90;100.00;96594.34;5034638;28;20217;-78
2022/10/25 03:57:48;;;;;;;2.90;1.17;;;;;;;11.87;100.00;96595.63;5035760;28;20226;-78
2022/10/25 04:00:15;;;;;;;2.23;1.00;;;;;;;11.93;100.00;96604.69;5047166;28;20203;-79
2022/10/25 04:02:44;;;;;;;1.37;1.00;;;;;;;11.92;100.00;96603.03;5034054;28;20199;-79
2022/10/25 04:05:11;;;;;;;3.03;0.90;;;;;;;11.86;100.00;96593.16;5040432;28;20202;-78
2022/10/25 04:07:38;;;;;;;3.87;1.17;;;;;;;11.89;100.00;96603.50;5041701;28;20213;-78
2022/10/25 04:10:08;;;;;;;1.97;0.80;;;;;;;11.85;100.00;96605.03;5044763;28;20229;-78
2022/10/25 04:12:35;;;;;;;4.40;1.10;;;;;;;11.73;100.00;96604.97;5043606;28;20299;-78
2022/10/25 04:15:03;;;;;;;3.33;1.70;;;;;;;11.74;100.00;96612.00;5038385;28;20202;-79
2022/10/25 04:17:30;;;;;;;1.37;1.00;;;;;;;11.72;100.00;96603.31;5035367;28;20246;-78
2022/10/25 04:19:58;;;;;;;2.90;0.90;;;;;;;11.77;100.00;96606.19;5033114;28;20210;-79
2022/10/25 04:22:25;;;;;;;2.00;1.00;;;;;;;11.75;100.00;96608.28;5044244;28;20214;-79
2022/10/25 04:24:52;;;;;;;1.87;1.20;;;;;;;11.69;100.00;96606.47;5049812;28;20199;-79
2022/10/25 04:27:19;;;;;;;1.27;1.10;;;;;;;11.70;100.00;96600.03;5038283;28;20195;-79
2022/10/25 04:29:46;;;;;;;1.40;0.90;;;;;;;11.64;100.00;96590.13;5053866;28;20214;-78
2022/10/25 04:32:13;;;;;;;3.20;0.90;;;;;;;11.60;100.00;96594.34;5038790;28;20210;-78
2022/10/25 04:34:40;;;;;;;2.27;1.00;;;;;;;11.50;100.00;96581.38;5046954;28;20220;-78
2022/10/25 04:37:08;;;;;;;4.93;1.20;;;;;;;11.61;100.00;96601.41;5030803;28;20222;-79
2022/10/25 04:39:35;;;;;;;1.03;0.80;;;;;;;11.57;100.00;96600.22;5048097;28;20200;-78
2022/10/25 04:42:02;;;;;;;1.50;1.07;;;;;;;11.55;100.00;96603.16;5036872;28;20211;-79
2022/10/25 04:44:29;;;;;;;1.40;0.90;;;;;;;11.54;100.00;96606.09;5038179;28;20198;-78
2022/10/25 04:46:56;;;;;;;1.33;0.90;;;;;;;11.58;100.00;96601.84;5041905;28;20297;-79
2022/10/25 04:49:23;;;;;;;1.37;1.00;;;;;;;11.60;100.00;96599.75;5033857;28;20199;-79
2022/10/25 04:51:50;;;;;;;2.27;1.10;;;;;;;11.60;100.00;96602.44;5052396;28;20214;-79
2022/10/25 04:54:18;;;;;;;2.07;1.20;;;;;;;11.55;100.00;96602.31;5035280;28;20202;-79
2022/10/25 04:56:45;;;;;;;1.77;1.00;;;;;;;11.58;100.00;96607.25;5032819;28;20230;-79
2022/10/25 04:59:13;;;;;;;0.97;0.83;;;;;;;11.53;100.00;96599.03;5048703;28;20202;-79
2022/10/25 05:01:40;;;;;;;2.00;0.90;;;;;;;11.39;100.00;96598.41;5034786;28;20213;-78
2022/10/25 05:04:07;;;;;;;1.40;0.90;;;;;;;11.34;100.00;96604.47;5045242;28;20319;-78
2022/10/25 05:06:34;;;;;;;2.87;0.87;;;;;;;11.36;100.00;96604.25;5054843;28;20232;-79
2022/10/25 05:09:01;;;;;;;1.90;1.20;;;;;;;11.35;100.00;96605.31;5059799;28;20213;-79
2022/10/25 05:11:29;;;;;;;1.67;1.40;;;;;;;11.38;100.00;96602.97;5038139;28;20292;-79
2022/10/25 05:13:56;;;;;;;2.30;1.30;;;;;;;11.35;100.00;96606.13;5048016;28;20240;-79
2022/10/25 05:16:24;;;;;;;2.40;0.93;;;;;;;11.37;100.00;96609.44;5033208;28;21072;-78
2022/10/25 05:18:54;;;;;;;2.87;1.07;;;;;;;11.30;100.00;96608.69;5044846;28;20238;-78
2022/10/25 05:21:24;;;;;;;1.77;1.10;;;;;;;11.30;100.00;96605.19;5035062;28;20203;-79
2022/10/25 05:23:51;;;;;;;2.83;1.07;;;;;;;11.32;100.00;96609.28;5037377;28;20215;-79
2022/10/25 05:26:20;;;;;;;5.13;1.10;;;;;;;11.31;100.00;96602.22;5036381;28;20211;-79
2022/10/25 05:28:51;;;;;;;3.00;1.10;;;;;;;11.28;100.00;96600.00;5045595;28;20210;-78
2022/10/25 05:31:20;;;;;;;1.53;1.07;;;;;;;11.23;100.00;96594.41;5047066;28;20289;-78
2022/10/25 05:33:49;;;;;;;3.90;1.27;;;;;;;11.21;100.00;96593.84;5058628;28;20206;-78
2022/10/25 05:36:17;;;;;;;2.97;1.07;;;;;;;11.20;100.00;96596.78;5051348;28;20230;-78
2022/10/25 05:38:44;;;;;;;1.50;0.90;;;;;;;11.20;100.00;96597.59;5045702;28;20207;-78
2022/10/25 05:41:12;;;;;;;2.63;1.20;;;;;;;11.23;100.00;96597.13;5039445;28;20203;-78
2022/10/25 05:43:40;;;;;;;1.10;1.00;;;;;;;11.15;100.00;96597.44;5039129;28;20226;-79
2022/10/25 05:46:10;;;;;;;1.43;1.20;;;;;;;11.11;100.00;96603.53;5044796;28;20230;-78
2022/10/25 05:48:38;;;;;;;1.83;1.00;;;;;;;11.11;100.00;96600.84;5031357;28;20204;-79
2022/10/25 05:51:14;;;;;;;1.53;1.20;;;;;;;11.07;100.00;96600.47;5040217;28;20206;-78
2022/10/25 05:53:45;;;;;;;4.40;1.47;;;;;;;11.07;100.00;96596.94;5036957;28;20210;-78
2022/10/25 05:56:13;;;;;;;2.60;1.30;;;;;;;11.04;100.00;96594.69;5033556;28;20206;-78
2022/10/25 05:58:40;;;;;;;1.50;1.20;;;;;;;11.02;100.00;96603.03;5035921;28;20205;-78
2022/10/25 06:01:09;;;;;;;1.37;1.17;;;;;;;11.07;100.00;96600.47;5047710;28;20225;-79
2022/10/25 06:03:37;;;;;;;1.47;1.17;;;;;;;10.98;100.00;96601.81;5047224;28;20198;-78
2022/10/25 06:06:06;;;;;;;3.27;1.50;;;;;;;10.98;100.00;96597.25;5034998;28;20256;-78
2022/10/25 06:08:34;;;;;;;1.40;0.90;;;;;;;11.05;100.00;96596.34;5036545;28;20261;-78
2022/10/25 06:11:02;;;;;;;2.63;1.00;;;;;;;11.09;100.00;96617.28;5038190;28;20235;-78
2022/10/25 06:13:29;;;;;;;3.93;1.23;;;;;;;11.15;100.00;96619.06;5047141;28;20292;-78
2022/10/25 06:15:56;;;;;;;2.40;1.20;;;;;;;11.17;100.00;96613.44;5042564;28;20193;-78
2022/10/25 06:18:25;;;;;;;5.90;1.10;;;;;;;11.21;100.00;96618.19;5033343;28;20218;-78
2022/10/25 06:20:52;;;;;;;2.30;1.00;;;;;;;11.17;100.00;96622.38;5047079;28;20234;-79
2022/10/25 06:23:18;;;;;;;2.93;1.17;;;;;;;11.15;100.00;96619.06;5040536;28;20206;-78
2022/10/25 06:25:45;;;;;;;4.03;1.03;;;;;;;11.16;100.00;96623.41;5040110;28;20222;-78
2022/10/25 06:28:13;;;;;;;4.57;1.30;;;;;;;11.14;100.00;96627.44;5034946;28;20435;-78
2022/10/25 06:30:40;;;;;;;4.03;1.20;;;;;;;11.00;100.00;96624.88;5040227;28;20241;-78
2022/10/25 06:33:09;;;;;;;2.40;1.10;;;;;;;10.97;100.00;96622.59;5059876;28;20206;-78
2022/10/25 06:35:38;;;;;;;1.37;1.00;;;;;;;11.00;100.00;96626.75;5039088;28;20301;-78
2022/10/25 06:38:05;;;;;;;4.30;1.73;;;;;;;10.99;100.00;96627.78;5046419;28;20213;-78
2022/10/25 06:40:34;;;;;;;1.50;1.00;;;;;;;10.97;100.00;96632.63;5037799;28;20210;-79
2022/10/25 06:43:01;;;;;;;2.80;1.00;;;;;;;10.93;100.00;96631.41;5045018;28;20206;-78
2022/10/25 06:45:28;;;;;;;1.83;1.37;;;;;;;10.95;100.00;96642.81;5044987;28;20202;-78
2022/10/25 06:47:55;;;;;;;3.53;1.10;;;;;;;11.03;100.00;96645.22;5049684;28;20202;-78
2022/10/25 06:50:22;;;;;;;4.87;1.37;;;;;;;10.99;100.00;96644.00;5048308;28;20202;-78
2022/10/25 06:52:50;;;;;;;1.80;1.20;;;;;;;11.00;100.00;96648.34;5047517;28;20221;-79
2022/10/25 06:55:17;;;;;;;2.97;1.27;;;;;;;10.94;100.00;96655.50;5046304;28;20202;-78
2022/10/25 06:57:44;;;;;;;1.37;1.10;;;;;;;10.93;100.00;96653.84;5030178;28;20222;-78
2022/10/25 07:00:12;;;;;;;2.07;1.47;;;;;;;10.91;100.00;96657.81;5056292;28;20252;-78
2022/10/25 07:02:39;;;;;;;2.20;1.43;;;;;;;10.90;100.00;96658.84;5072823;28;20220;-78
2022/10/25 07:05:07;;;;;;;1.70;1.27;;;;;;;10.92;100.00;96659.47;5063092;28;20206;-78
2022/10/25 07:07:34;;;;;;;2.53;1.10;;;;;;;10.87;100.00;96660.16;5046808;28;20202;-78
2022/10/25 07:10:03;;;;;;;5.47;1.60;;;;;;;10.84;100.00;96667.88;5045031;28;20228;-79
2022/10/25 07:12:32;;;;;;;1.43;1.07;;;;;;;10.78;100.00;96664.19;5043398;28;20261;-78
2022/10/25 07:14:59;;;;;;;2.93;1.30;;;;;;;10.74;100.00;96673.78;5050673;28;20207;-78
2022/10/25 07:17:26;;;;;;;2.53;1.10;;;;;;;10.77;100.00;96669.81;5061701;28;20222;-79
2022/10/25 07:19:53;;;;;;;2.20;1.03;;;;;;;10.80;100.00;96674.78;5046947;28;20298;-78
2022/10/25 07:22:19;;;;;;;2.33;1.43;;;;;;;10.80;100.00;96663.97;5032573;28;20190;-77
2022/10/25 07:24:46;;;;;;;3.33;1.80;;;;;;;10.82;100.00;96669.97;5052425;28;20278;-77
2022/10/25 07:27:15;;;;;;;2.87;1.93;;;;;;;10.84;100.00;96679.50;5041426;28;20199;-77
2022/10/25 07:29:42;;;;;;;6.93;1.70;;;;;;;10.84;100.00;96676.81;5038652;28;20197;-77
2022/10/25 07:32:11;;;;;;;2.90;2.50;;;;;;;10.80;100.00;96682.88;5040942;28;20195;-77
2022/10/25 07:34:38;;;;;;;6.03;2.20;;;;;;;10.74;100.00;96684.59;5040917;28;20206;-77
2022/10/25 07:37:05;;;;;;;4.63;2.00;;;;;;;10.70;100.00;96685.25;5043683;28;20215;-77
2022/10/25 07:39:32;;;;;;;4.57;1.70;;;;;;;10.63;100.00;96680.72;5029225;28;20218;-77
2022/10/25 07:41:59;;;;;;;3.30;2.50;;;;;;;10.65;100.00;96677.81;5036844;28;20199;-78
2022/10/25 07:44:28;;;;;;;5.63;3.57;;;;;;;10.65;100.00;96679.69;5030406;28;20289;-77
2022/10/25 07:46:54;;;;;;;4.63;1.93;;;;;;;10.62;100.00;96678.28;5031282;28;20214;-78
2022/10/25 07:49:21;;;;;;;2.60;1.40;;;;;;;10.60;100.00;96678.50;5031645;28;20250;-78
2022/10/25 07:51:49;;;;;;;4.97;1.70;;;;;;;10.61;100.00;96682.84;5042475;28;20213;-77
2022/10/25 07:54:16;;;;;;;9.33;2.00;;;;;;;10.64;100.00;96681.56;5041638;28;20259;-77
2022/10/25 07:56:43;;;;;;;2.40;1.30;;;;;;;10.70;100.00;96683.41;5042240;28;20202;-77
2022/10/25 07:59:10;;;;;;;2.03;1.20;;;;;;;10.72;100.00;96675.88;5054554;28;20290;-77
2022/10/25 08:01:38;;;;;;;1.83;1.47;;;;;;;10.70;100.00;96678.00;5048893;28;20252;-78
2022/10/25 08:04:05;;;;;;;1.73;1.40;;;;;;;10.73;100.00;96672.13;5047058;28;20213;-77
2022/10/25 08:06:34;;;;;;;3.20;1.20;;;;;;;10.84;100.00;96667.88;5063412;28;20198;-77
2022/10/25 08:09:01;;;;;;;8.33;1.60;;;;;;;10.88;100.00;96677.19;5039207;28;20212;-77
2022/10/25 08:11:28;;;;;;;1.83;1.20;;;;;;;10.90;100.00;96675.06;5039535;28;20237;-78
2022/10/25 08:13:55;;;;;;;2.97;1.10;;;;;;;10.95;100.00;96673.38;5042118;28;20248;-78
2022/10/25 08:16:22;;;;;;;1.00;0.90;;;;;;;11.12;100.00;96673.59;5048882;28;20206;-77
2022/10/25 08:18:51;;;;;;;1.70;1.37;;;;;;;11.13;100.00;96672.53;5040772;28;20296;-77
2022/10/25 08:21:18;;;;;;;2.43;1.20;;;;;;;11.18;100.00;96658.34;5051257;28;20213;-77
2022/10/25 08:23:44;;;;;;;4.53;1.30;;;;;;;11.31;100.00;96669.00;5041226;28;20240;-77
2022/10/25 08:26:11;;;;;;;2.63;1.10;;;;;;;11.38;100.00;96670.56;5037408;28;20269;-77
2022/10/25 08:28:39;;;;;;;2.10;1.20;;;;;;;11.41;100.00;96671.16;5038583;28;20206;-77
2022/10/25 08:31:09;;;;;;;1.10;0.90;;;;;;;11.50;100.00;96662.50;5038135;28;20265;-78
2022/10/25 08:33:36;;;;;;;4.00;0.90;;;;;;;11.57;100.00;96655.13;5041529;28;20201;-77
2022/10/25 08:36:07;;;;;;;3.37;1.40;;;;;;;11.64;100.00;96653.16;5040167;28;20206;-77
2022/10/25 08:38:34;;;;;;;1.40;0.90;;;;;;;11.71;100.00;96650.38;5050419;28;20251;-77
2022/10/25 08:41:08;;;;;;;2.40;1.00;;;;;;;11.82;100.00;96646.91;5045591;28;20222;-77
2022/10/25 08:44:11;;;;;;;2.53;1.10;;;;;;;11.91;100.00;96652.81;5039791;28;20248;-77
2022/10/25 08:46:42;;;;;;;5.33;1.10;;;;;;;12.04;100.00;96639.91;5046913;28;20202;-78
2022/10/25 08:49:16;;;;;;;3.27;1.10;;;;;;;12.21;100.00;96645.47;5052179;28;20214;-77
2022/10/25 08:51:47;;;;;;;1.13;0.80;;;;;;;12.32;100.00;96641.13;5048424;28;20310;-77
2022/10/25 08:54:22;;;;;;;4.23;1.13;;;;;;;12.42;100.00;96636.75;5047303;28;20221;-78
2022/10/25 08:56:54;;;;;;;1.00;0.80;;;;;;;12.46;100.00;96637.94;5047281;28;20213;-77
2022/10/25 08:59:32;;;;;;;1.87;0.93;;;;;;;12.62;100.00;96641.84;5040195;28;20214;-78
2022/10/25 09:02:00;;;;;;;3.43;1.27;;;;;;;12.73;100.00;96638.31;5041231;28;20217;-77
2022/10/25 09:04:30;;;;;;;1.57;0.97;;;;;;;12.83;100.00;96626.88;5045101;28;20234;-78
2022/10/25 09:07:09;;;;;;;2.23;0.90;;;;;;;12.91;100.00;96631.94;5040646;28;20241;-78
2022/10/25 09:09:46;;;;;;;3.27;1.30;;;;;;;13.03;100.00;96630.00;5053422;28;20226;-78
2022/10/25 09:12:25;;;;;;;2.97;1.30;;;;;;;13.19;100.00;96621.16;5041626;28;20265;-78
2022/10/25 09:15:00;;;;;;;1.93;1.27;;;;;;;13.46;100.00;96624.13;5042471;28;20211;-78
2022/10/25 09:17:36;;;;;;;1.57;1.17;;;;;;;13.72;100.00;96625.44;5045553;28;20301;-77
2022/10/25 09:20:06;;;;;;;1.60;1.10;;;;;;;13.90;100.00;96617.09;5033435;28;20333;-77
2022/10/25 09:22:44;;;;;;;1.33;1.10;;;;;;;14.00;100.00;96617.28;5046558;28;20198;-77
2022/10/25 09:25:21;;;;;;;3.33;1.03;;;;;;;14.10;100.00;96613.91;5052501;28;20202;-77
2022/10/25 09:27:58;;;;;;;1.70;1.40;;;;;;;14.22;100.00;96611.94;5045425;28;20202;-77
2022/10/25 09:30:27;;;;;;;1.53;1.20;;;;;;;14.32;100.00;96606.66;5037337;28;20209;-77
2022/10/25 09:33:00;;;;;;;4.07;1.10;;;;;;;14.37;100.00;96595.88;5034893;28;20201;-78
2022/10/25 09:35:35;;;;;;;2.57;1.20;;;;;;;14.41;100.00;96607.09;5044659;28;20207;-78
2022/10/25 09:38:11;;;;;;;2.33;1.07;;;;;;;14.48;100.00;96607.75;5037730;28;20344;-78
2022/10/25 09:40:44;;;;;;;2.70;1.13;;;;;;;14.61;100.00;96607.44;5033283;28;20205;-78
2022/10/25 09:43:16;;;;;;;1.90;1.40;;;;;;;14.70;100.00;96594.25;5032504;28;20199;-79
2022/10/25 09:45:47;;;;;;;1.50;1.10;;;;;;;14.71;100.00;96604.03;5036833;28;20293;-78
2022/10/25 09:48:21;;;;;;;3.80;1.30;;;;;;;14.79;100.00;96597.34;5038114;28;20206;-79
2022/10/25 09:50:54;;;;;;;3.00;1.00;;;;;;;14.85;100.00;96586.28;5040873;28;20213;-79
2022/10/25 09:53:22;;;;;;;1.57;1.00;;;;;;;14.92;100.00;96581.47;5039686;28;20515;-80
2022/10/25 09:55:52;;;;;;;2.30;1.20;;;;;;;15.02;100.00;96573.47;5061565;28;20253;-80
2022/10/25 09:58:23;;;;;;;2.77;1.27;;;;;;;15.19;100.00;96584.28;5044174;28;20291;-80
2022/10/25 10:00:51;;;;;;;1.60;1.20;;;;;;;15.18;100.00;96585.34;5046749;28;20218;-80
2022/10/25 10:03:20;;;;;;;2.53;1.30;;;;;;;15.29;100.00;96586.31;5055819;28;20269;-80
2022/10/25 10:05:54;;;;;;;3.00;1.37;;;;;;;15.40;99.60;96577.97;5054000;28;20203;-80
2022/10/25 10:08:23;;;;;;;2.20;1.03;;;;;;;15.44;99.31;96573.69;5044111;28;20256;-80
2022/10/25 10:10:52;;;;;;;2.77;1.20;;;;;;;15.55;99.61;96582.00;5045004;28;20218;-80
2022/10/25 10:13:28;;;;;;;1.80;1.13;;;;;;;15.67;97.79;96582.66;5037535;28;20265;-80
2022/10/25 10:15:58;;;;;;;2.70;1.30;;;;;;;15.84;97.08;96586.09;5044913;28;20220;-79
2022/10/25 10:18:28;;;;;;;2.37;1.07;;;;;;;15.97;95.56;96587.59;5031174;28;20226;-80
2022/10/25 10:21:13;;;;;;;3.10;1.20;;;;;;;16.12;97.38;96585.00;5031738;28;20207;-79
2022/10/25 10:23:50;;;;;;;3.23;1.30;;;;;;;16.25;99.43;96584.56;5033327;28;20225;-79
2022/10/25 10:26:27;;;;;;;2.30;1.40;;;;;;;16.38;99.74;96584.13;5031977;28;20294;-79
2022/10/25 10:29:04;;;;;;;5.10;1.20;;;;;;;16.64;100.00;96582.44;5037684;28;20256;-79
2022/10/25 10:31:36;;;;;;;3.07;1.10;;;;;;;16.76;98.66;96582.25;5040020;28;20197;-79
2022/10/25 10:34:04;;;;;;;3.73;1.20;;;;;;;16.82;98.41;96567.53;5052503;28;20217;-80
2022/10/25 10:36:33;;;;;;;3.03;0.90;;;;;;;17.01;96.23;96563.28;5036266;28;20214;-80
2022/10/25 10:39:21;;;;;;;2.90;1.30;;;;;;;17.15;95.07;96575.34;5035396;28;20222;-80
2022/10/25 10:42:01;;;;;;;1.10;1.00;;;;;;;17.27;92.23;96569.63;5036320;28;20236;-80
2022/10/25 10:44:33;;;;;;;2.20;1.37;;;;;;;17.36;92.99;96555.22;5043045;28;20214;-80
2022/10/25 10:47:01;;;;;;;2.17;1.10;;;;;;;17.57;90.69;96560.75;5040630;28;20222;-79
2022/10/25 10:49:37;;;;;;;2.20;1.03;;;;;;;17.73;89.88;96566.00;5045184;28;20267;-79
2022/10/25 10:52:05;;;;;;;2.23;1.33;;;;;;;17.83;92.17;96557.00;5038770;28;20301;-80
2022/10/25 10:54:38;;;;;;;3.90;1.30;;;;;;;17.97;91.15;96551.81;5042793;28;20230;-80
2022/10/25 10:57:07;;;;;;;1.20;1.10;;;;;;;18.09;93.63;96558.69;5032695;28;20210;-80
2022/10/25 10:59:46;;;;;;;1.87;1.20;;;;;;;18.31;91.97;96557.56;5036849;28;20219;-80
2022/10/25 11:02:28;;;;;;;5.27;1.23;;;;;;;18.48;88.69;96564.38;5029472;28;20206;-80
2022/10/25 11:04:56;;;;;;;1.60;1.03;;;;;;;18.74;85.27;96557.00;5045112;28;20207;-80
2022/10/25 11:07:34;;;;;;;1.20;1.07;;;;;;;18.96;84.18;96548.47;5059035;28;20202;-80
2022/10/25 11:10:31;;;;;;;2.07;1.07;;;;;;;19.20;83.25;96545.91;5047992;28;20260;-79
2022/10/25 11:13:14;;;;;;;1.40;1.10;;;;;;;19.35;83.53;96551.31;5010874;28;20329;-79
2022/10/25 11:16:07;;;;;;;3.43;1.40;;;;;;;19.39;81.19;96549.69;5035033;28;20229;-80
2022/10/25 11:18:42;;;;;;;2.80;1.08;;;;;;;19.51;80.91;96546.63;5049205;28;20237;-80
2022/10/25 11:21:20;;;;;;;5.03;1.15;;;;;;;19.59;80.96;96543.28;5043766;28;20218;-80
2022/10/25 11:24:02;;;;;;;3.63;1.45;;;;;;;19.73;82.54;96538.00;5033920;28;20206;-79
2022/10/25 11:26:45;;;;;;;2.70;1.20;;;;;;;20.02;81.90;96544.38;5036899;28;20215;-80
2022/10/25 11:29:26;;;;;;;1.48;1.30;;;;;;;20.32;78.80;96543.31;5039774;28;20195;-80
2022/10/25 11:32:01;;;;;;;2.88;1.17;;;;;;;20.39;78.36;96539.19;5041680;28;20270;-80
2022/10/25 11:34:39;;;;;;;4.07;1.30;;;;;;;20.27;78.94;96538.69;5041367;28;20203;-80
2022/10/25 11:37:20;;;;;;;5.18;1.88;;;;;;;20.33;79.82;96534.78;5038777;28;20241;-78
2022/10/25 11:40:00;;;;;;;4.80;1.50;;;;;;;20.47;79.47;96532.25;5057105;28;20229;-80
2022/10/25 11:42:51;;;;;;;3.40;1.52;;;;;;;20.56;78.97;96530.50;5038775;28;20207;-80